sensor_id;sensor_type;location;lat;lon;timestamp;P1;durP1;ratioP1;P2;durP2;ratioP2
46391;SDS011;32098;49.448;7.904;2024-01-15T00:02:02;35.93;;;15.30;;
46391;SDS011;32098;49.448;7.904;2024-01-15T00:04:29;42.33;;;15.17;;
46391;SDS011;32098;49.448;7.904;2024-01-15T00:06:56;35.43;;;15.10;;
46391;SDS011;32098;49.448;7.904;2024-01-15T00:09:23;39.83;;;15.40;;
46391;SDS011;32098;49.448;7.904;2024-01-15T00:11:49;37.03;;;15.30;;
46391;SDS011;32098;49.448;7.904;2024-01-15T00:14:16;38.10;;;15.70;;
46391;SDS011;32098;49.448;7.904;2024-01-15T00:16:46;38.93;;;15.03;;
46391;SDS011;32098;49.448;7.904;2024-01-15T00:19:15;41.30;;;15.50;;
46391;SDS011;32098;49.448;7.904;2024-01-15T00:21:42;36.77;;;14.53;;
46391;SDS011;32098;49.448;7.904;2024-01-15T00:24:09;37.00;;;15.37;;
46391;SDS011;32098;49.448;7.904;2024-01-15T00:26:36;36.63;;;14.77;;
46391;SDS011;32098;49.448;7.904;2024-01-15T00:29:03;33.47;;;14.60;;
46391;SDS011;32098;49.448;7.904;2024-01-15T00:31:30;35.37;;;14.57;;
46391;SDS011;32098;49.448;7.904;2024-01-15T00:33:56;36.67;;;15.20;;
46391;SDS011;32098;49.448;7.904;2024-01-15T00:36:24;40.33;;;15.47;;
46391;SDS011;32098;49.448;7.904;2024-01-15T00:38:51;36.40;;;14.53;;
46391;SDS011;32098;49.448;7.904;2024-01-15T00:41:18;36.43;;;15.17;;
46391;SDS011;32098;49.448;7.904;2024-01-15T00:43:45;35.27;;;14.60;;
46391;SDS011;32098;49.448;7.904;2024-01-15T00:46:12;35.53;;;13.90;;
46391;SDS011;32098;49.448;7.904;2024-01-15T00:48:39;37.93;;;14.20;;
46391;SDS011;32098;49.448;7.904;2024-01-15T00:51:05;37.03;;;14.50;;
46391;SDS011;32098;49.448;7.904;2024-01-15T00:53:32;39.60;;;14.77;;
46391;SDS011;32098;49.448;7.904;2024-01-15T00:55:59;33.77;;;14.87;;
46391;SDS011;32098;49.448;7.904;2024-01-15T00:58:26;37.50;;;15.27;;
46391;SDS011;32098;49.448;7.904;2024-01-15T01:00:53;36.93;;;14.97;;
46391;SDS011;32098;49.448;7.904;2024-01-15T01:03:20;33.13;;;13.60;;
46391;SDS011;32098;49.448;7.904;2024-01-15T01:05:49;33.03;;;13.70;;
46391;SDS011;32098;49.448;7.904;2024-01-15T01:08:16;36.43;;;14.33;;
46391;SDS011;32098;49.448;7.904;2024-01-15T01:10:43;32.70;;;14.17;;
46391;SDS011;32098;49.448;7.904;2024-01-15T01:13:09;36.60;;;14.40;;
46391;SDS011;32098;49.448;7.904;2024-01-15T01:15:36;30.33;;;13.23;;
46391;SDS011;32098;49.448;7.904;2024-01-15T01:18:03;32.23;;;13.90;;
46391;SDS011;32098;49.448;7.904;2024-01-15T01:20:31;31.67;;;12.97;;
46391;SDS011;32098;49.448;7.904;2024-01-15T01:22:58;29.17;;;12.67;;
46391;SDS011;32098;49.448;7.904;2024-01-15T01:25:24;33.93;;;13.87;;
46391;SDS011;32098;49.448;7.904;2024-01-15T01:27:51;33.03;;;13.70;;
46391;SDS011;32098;49.448;7.904;2024-01-15T01:30:17;31.07;;;13.50;;
46391;SDS011;32098;49.448;7.904;2024-01-15T01:32:44;36.47;;;14.00;;
46391;SDS011;32098;49.448;7.904;2024-01-15T01:35:12;38.57;;;14.57;;
46391;SDS011;32098;49.448;7.904;2024-01-15T01:37:38;33.90;;;13.23;;
46391;SDS011;32098;49.448;7.904;2024-01-15T01:40:05;28.57;;;12.13;;
46391;SDS011;32098;49.448;7.904;2024-01-15T01:42:32;35.40;;;13.80;;
46391;SDS011;32098;49.448;7.904;2024-01-15T01:44:59;34.73;;;13.07;;
46391;SDS011;32098;49.448;7.904;2024-01-15T01:47:26;32.73;;;13.23;;
46391;SDS011;32098;49.448;7.904;2024-01-15T01:49:53;31.60;;;12.07;;
46391;SDS011;32098;49.448;7.904;2024-01-15T01:52:20;33.27;;;13.17;;
46391;SDS011;32098;49.448;7.904;2024-01-15T01:54:47;30.97;;;13.20;;
46391;SDS011;32098;49.448;7.904;2024-01-15T01:57:14;31.23;;;12.53;;
46391;SDS011;32098;49.448;7.904;2024-01-15T01:59:41;31.83;;;12.90;;
46391;SDS011;32098;49.448;7.904;2024-01-15T02:02:08;33.53;;;13.10;;
46391;SDS011;32098;49.448;7.904;2024-01-15T02:04:34;33.67;;;12.57;;
46391;SDS011;32098;49.448;7.904;2024-01-15T02:07:03;31.47;;;12.30;;
46391;SDS011;32098;49.448;7.904;2024-01-15T02:09:30;27.13;;;12.57;;
46391;SDS011;32098;49.448;7.904;2024-01-15T02:11:58;29.07;;;13.37;;
46391;SDS011;32098;49.448;7.904;2024-01-15T02:14:25;33.40;;;14.30;;
46391;SDS011;32098;49.448;7.904;2024-01-15T02:16:52;35.33;;;14.57;;
46391;SDS011;32098;49.448;7.904;2024-01-15T02:19:18;33.87;;;13.40;;
46391;SDS011;32098;49.448;7.904;2024-01-15T02:21:45;40.03;;;14.40;;
46391;SDS011;32098;49.448;7.904;2024-01-15T02:24:12;32.10;;;12.10;;
46391;SDS011;32098;49.448;7.904;2024-01-15T02:26:39;33.13;;;13.77;;
46391;SDS011;32098;49.448;7.904;2024-01-15T02:29:09;30.43;;;13.53;;
46391;SDS011;32098;49.448;7.904;2024-01-15T02:31:36;36.00;;;13.57;;
46391;SDS011;32098;49.448;7.904;2024-01-15T02:34:04;34.80;;;13.73;;
46391;SDS011;32098;49.448;7.904;2024-01-15T02:36:31;39.00;;;14.03;;
46391;SDS011;32098;49.448;7.904;2024-01-15T02:38:57;34.27;;;13.93;;
46391;SDS011;32098;49.448;7.904;2024-01-15T02:41:24;34.53;;;13.67;;
46391;SDS011;32098;49.448;7.904;2024-01-15T02:43:51;39.23;;;14.00;;
46391;SDS011;32098;49.448;7.904;2024-01-15T02:46:17;32.30;;;13.73;;
46391;SDS011;32098;49.448;7.904;2024-01-15T02:48:44;33.37;;;12.67;;
46391;SDS011;32098;49.448;7.904;2024-01-15T02:51:11;37.47;;;14.37;;
46391;SDS011;32098;49.448;7.904;2024-01-15T02:53:38;41.40;;;14.43;;
46391;SDS011;32098;49.448;7.904;2024-01-15T02:56:06;39.60;;;14.37;;
46391;SDS011;32098;49.448;7.904;2024-01-15T02:58:34;36.90;;;13.20;;
46391;SDS011;32098;49.448;7.904;2024-01-15T03:01:00;32.60;;;13.97;;
46391;SDS011;32098;49.448;7.904;2024-01-15T03:03:28;31.77;;;12.83;;
46391;SDS011;32098;49.448;7.904;2024-01-15T03:05:55;33.57;;;13.53;;
46391;SDS011;32098;49.448;7.904;2024-01-15T03:08:21;38.00;;;14.10;;
46391;SDS011;32098;49.448;7.904;2024-01-15T03:10:49;35.80;;;13.77;;
46391;SDS011;32098;49.448;7.904;2024-01-15T03:13:16;33.80;;;12.77;;
46391;SDS011;32098;49.448;7.904;2024-01-15T03:15:42;36.50;;;13.80;;
46391;SDS011;32098;49.448;7.904;2024-01-15T03:18:09;33.00;;;13.67;;
46391;SDS011;32098;49.448;7.904;2024-01-15T03:20:37;34.17;;;13.93;;
46391;SDS011;32098;49.448;7.904;2024-01-15T03:23:03;36.93;;;14.50;;
46391;SDS011;32098;49.448;7.904;2024-01-15T03:25:30;36.53;;;14.87;;
46391;SDS011;32098;49.448;7.904;2024-01-15T03:27:56;27.90;;;12.63;;
46391;SDS011;32098;49.448;7.904;2024-01-15T03:30:23;31.63;;;13.37;;
46391;SDS011;32098;49.448;7.904;2024-01-15T03:32:50;34.13;;;12.30;;
46391;SDS011;32098;49.448;7.904;2024-01-15T03:35:17;34.67;;;12.97;;
46391;SDS011;32098;49.448;7.904;2024-01-15T03:37:43;31.57;;;12.30;;
46391;SDS011;32098;49.448;7.904;2024-01-15T03:40:10;33.43;;;13.37;;
46391;SDS011;32098;49.448;7.904;2024-01-15T03:42:37;33.90;;;13.20;;
46391;SDS011;32098;49.448;7.904;2024-01-15T03:45:04;32.17;;;13.73;;
46391;SDS011;32098;49.448;7.904;2024-01-15T03:47:31;30.70;;;12.57;;
46391;SDS011;32098;49.448;7.904;2024-01-15T03:49:58;31.13;;;13.40;;
46391;SDS011;32098;49.448;7.904;2024-01-15T03:52:24;31.27;;;13.07;;
46391;SDS011;32098;49.448;7.904;2024-01-15T03:54:51;32.10;;;12.83;;
46391;SDS011;32098;49.448;7.904;2024-01-15T03:57:18;32.00;;;12.70;;
46391;SDS011;32098;49.448;7.904;2024-01-15T03:59:44;30.70;;;12.93;;
46391;SDS011;32098;49.448;7.904;2024-01-15T04:02:13;30.60;;;12.67;;
46391;SDS011;32098;49.448;7.904;2024-01-15T04:04:41;37.80;;;13.30;;
46391;SDS011;32098;49.448;7.904;2024-01-15T04:07:09;31.07;;;13.17;;
46391;SDS011;32098;49.448;7.904;2024-01-15T04:09:36;32.33;;;12.87;;
46391;SDS011;32098;49.448;7.904;2024-01-15T04:12:03;35.13;;;14.13;;
46391;SDS011;32098;49.448;7.904;2024-01-15T04:14:29;28.77;;;13.57;;
46391;SDS011;32098;49.448;7.904;2024-01-15T04:16:56;33.20;;;12.97;;
46391;SDS011;32098;49.448;7.904;2024-01-15T04:19:23;29.23;;;11.50;;
46391;SDS011;32098;49.448;7.904;2024-01-15T04:21:49;27.13;;;11.90;;
46391;SDS011;32098;49.448;7.904;2024-01-15T04:24:16;29.50;;;12.43;;
46391;SDS011;32098;49.448;7.904;2024-01-15T04:26:44;27.43;;;12.10;;
46391;SDS011;32098;49.448;7.904;2024-01-15T04:29:11;23.93;;;10.90;;
46391;SDS011;32098;49.448;7.904;2024-01-15T04:31:38;22.77;;;10.73;;
46391;SDS011;32098;49.448;7.904;2024-01-15T04:34:05;27.07;;;12.47;;
46391;SDS011;32098;49.448;7.904;2024-01-15T04:36:38;24.77;;;11.83;;
46391;SDS011;32098;49.448;7.904;2024-01-15T04:39:05;24.10;;;10.63;;
46391;SDS011;32098;49.448;7.904;2024-01-15T04:41:32;24.10;;;10.33;;
46391;SDS011;32098;49.448;7.904;2024-01-15T04:43:59;25.80;;;10.90;;
46391;SDS011;32098;49.448;7.904;2024-01-15T04:46:27;24.77;;;11.07;;
46391;SDS011;32098;49.448;7.904;2024-01-15T04:48:54;22.77;;;10.97;;
46391;SDS011;32098;49.448;7.904;2024-01-15T04:51:20;23.73;;;10.90;;
46391;SDS011;32098;49.448;7.904;2024-01-15T04:53:47;27.53;;;11.60;;
46391;SDS011;32098;49.448;7.904;2024-01-15T04:56:14;25.33;;;11.17;;
46391;SDS011;32098;49.448;7.904;2024-01-15T04:58:40;23.17;;;10.27;;
46391;SDS011;32098;49.448;7.904;2024-01-15T05:01:07;26.43;;;11.73;;
46391;SDS011;32098;49.448;7.904;2024-01-15T05:03:35;23.30;;;11.33;;
46391;SDS011;32098;49.448;7.904;2024-01-15T05:06:02;24.13;;;10.23;;
46391;SDS011;32098;49.448;7.904;2024-01-15T05:08:29;27.80;;;13.13;;
46391;SDS011;32098;49.448;7.904;2024-01-15T05:10:56;25.07;;;11.47;;
46391;SDS011;32098;49.448;7.904;2024-01-15T05:13:23;26.83;;;11.70;;
46391;SDS011;32098;49.448;7.904;2024-01-15T05:15:49;25.90;;;11.47;;
46391;SDS011;32098;49.448;7.904;2024-01-15T05:18:16;25.23;;;11.93;;
46391;SDS011;32098;49.448;7.904;2024-01-15T05:20:43;26.83;;;11.60;;
46391;SDS011;32098;49.448;7.904;2024-01-15T05:23:10;25.90;;;11.53;;
46391;SDS011;32098;49.448;7.904;2024-01-15T05:25:37;28.10;;;11.57;;
46391;SDS011;32098;49.448;7.904;2024-01-15T05:28:04;25.27;;;11.37;;
46391;SDS011;32098;49.448;7.904;2024-01-15T05:30:31;27.53;;;11.90;;
46391;SDS011;32098;49.448;7.904;2024-01-15T05:32:58;24.43;;;12.03;;
46391;SDS011;32098;49.448;7.904;2024-01-15T05:35:26;29.30;;;12.73;;
46391;SDS011;32098;49.448;7.904;2024-01-15T05:37:53;27.13;;;12.33;;
46391;SDS011;32098;49.448;7.904;2024-01-15T05:40:20;25.33;;;12.70;;
46391;SDS011;32098;49.448;7.904;2024-01-15T05:42:47;28.23;;;12.90;;
46391;SDS011;32098;49.448;7.904;2024-01-15T05:45:14;30.33;;;12.83;;
46391;SDS011;32098;49.448;7.904;2024-01-15T05:47:41;28.97;;;12.93;;
46391;SDS011;32098;49.448;7.904;2024-01-15T05:50:08;28.93;;;12.80;;
46391;SDS011;32098;49.448;7.904;2024-01-15T05:52:35;30.67;;;12.43;;
46391;SDS011;32098;49.448;7.904;2024-01-15T05:55:02;33.20;;;12.83;;
46391;SDS011;32098;49.448;7.904;2024-01-15T05:57:29;31.53;;;13.10;;
46391;SDS011;32098;49.448;7.904;2024-01-15T05:59:56;32.50;;;13.90;;
46391;SDS011;32098;49.448;7.904;2024-01-15T06:02:23;29.87;;;13.57;;
46391;SDS011;32098;49.448;7.904;2024-01-15T06:04:49;32.80;;;14.13;;
46391;SDS011;32098;49.448;7.904;2024-01-15T06:07:16;27.20;;;12.77;;
46391;SDS011;32098;49.448;7.904;2024-01-15T06:09:42;30.03;;;12.10;;
46391;SDS011;32098;49.448;7.904;2024-01-15T06:12:09;34.30;;;13.73;;
46391;SDS011;32098;49.448;7.904;2024-01-15T06:14:36;28.17;;;13.27;;
46391;SDS011;32098;49.448;7.904;2024-01-15T06:17:02;31.43;;;13.33;;
46391;SDS011;32098;49.448;7.904;2024-01-15T06:19:29;29.13;;;13.20;;
46391;SDS011;32098;49.448;7.904;2024-01-15T06:21:56;27.93;;;12.70;;
46391;SDS011;32098;49.448;7.904;2024-01-15T06:24:23;28.87;;;13.00;;
46391;SDS011;32098;49.448;7.904;2024-01-15T06:26:50;30.07;;;13.10;;
46391;SDS011;32098;49.448;7.904;2024-01-15T06:29:16;28.17;;;13.23;;
46391;SDS011;32098;49.448;7.904;2024-01-15T06:31:43;28.87;;;13.17;;
46391;SDS011;32098;49.448;7.904;2024-01-15T06:34:10;28.20;;;13.47;;
46391;SDS011;32098;49.448;7.904;2024-01-15T06:36:37;31.00;;;13.37;;
46391;SDS011;32098;49.448;7.904;2024-01-15T06:39:04;31.77;;;14.07;;
46391;SDS011;32098;49.448;7.904;2024-01-15T06:41:31;30.60;;;12.90;;
46391;SDS011;32098;49.448;7.904;2024-01-15T06:43:58;28.00;;;13.27;;
46391;SDS011;32098;49.448;7.904;2024-01-15T06:46:25;34.03;;;14.83;;
46391;SDS011;32098;49.448;7.904;2024-01-15T06:48:51;29.63;;;13.80;;
46391;SDS011;32098;49.448;7.904;2024-01-15T06:51:18;26.37;;;13.60;;
46391;SDS011;32098;49.448;7.904;2024-01-15T06:53:44;31.30;;;13.80;;
46391;SDS011;32098;49.448;7.904;2024-01-15T06:56:11;27.43;;;12.97;;
46391;SDS011;32098;49.448;7.904;2024-01-15T06:58:38;28.67;;;13.33;;
46391;SDS011;32098;49.448;7.904;2024-01-15T07:01:06;28.50;;;14.10;;
46391;SDS011;32098;49.448;7.904;2024-01-15T07:03:34;30.90;;;14.53;;
46391;SDS011;32098;49.448;7.904;2024-01-15T07:06:01;31.90;;;14.07;;
46391;SDS011;32098;49.448;7.904;2024-01-15T07:08:28;28.50;;;14.43;;
46391;SDS011;32098;49.448;7.904;2024-01-15T07:10:54;35.20;;;15.80;;
46391;SDS011;32098;49.448;7.904;2024-01-15T07:13:21;33.93;;;15.23;;
46391;SDS011;32098;49.448;7.904;2024-01-15T07:15:48;33.20;;;15.57;;
46391;SDS011;32098;49.448;7.904;2024-01-15T07:18:16;27.97;;;14.10;;
46391;SDS011;32098;49.448;7.904;2024-01-15T07:20:43;30.77;;;14.10;;
46391;SDS011;32098;49.448;7.904;2024-01-15T07:23:09;25.50;;;13.07;;
46391;SDS011;32098;49.448;7.904;2024-01-15T07:25:36;29.63;;;14.50;;
46391;SDS011;32098;49.448;7.904;2024-01-15T07:28:03;24.33;;;12.77;;
46391;SDS011;32098;49.448;7.904;2024-01-15T07:30:30;28.13;;;13.50;;
46391;SDS011;32098;49.448;7.904;2024-01-15T07:32:57;24.83;;;12.67;;
46391;SDS011;32098;49.448;7.904;2024-01-15T07:35:24;25.60;;;13.70;;
46391;SDS011;32098;49.448;7.904;2024-01-15T07:37:50;25.37;;;12.67;;
46391;SDS011;32098;49.448;7.904;2024-01-15T07:40:17;27.37;;;14.00;;
46391;SDS011;32098;49.448;7.904;2024-01-15T07:42:44;26.03;;;13.47;;
46391;SDS011;32098;49.448;7.904;2024-01-15T07:45:10;30.90;;;15.57;;
46391;SDS011;32098;49.448;7.904;2024-01-15T07:47:37;31.40;;;15.23;;
46391;SDS011;32098;49.448;7.904;2024-01-15T07:50:04;27.63;;;14.23;;
46391;SDS011;32098;49.448;7.904;2024-01-15T07:52:33;28.53;;;14.60;;
46391;SDS011;32098;49.448;7.904;2024-01-15T07:55:00;30.17;;;14.77;;
46391;SDS011;32098;49.448;7.904;2024-01-15T07:57:27;25.90;;;12.47;;
46391;SDS011;32098;49.448;7.904;2024-01-15T07:59:54;28.87;;;14.27;;
46391;SDS011;32098;49.448;7.904;2024-01-15T08:02:21;26.70;;;13.50;;
46391;SDS011;32098;49.448;7.904;2024-01-15T08:04:48;29.33;;;14.70;;
46391;SDS011;32098;49.448;7.904;2024-01-15T08:07:15;26.47;;;13.23;;
46391;SDS011;32098;49.448;7.904;2024-01-15T08:09:42;27.27;;;13.13;;
46391;SDS011;32098;49.448;7.904;2024-01-15T08:12:09;29.97;;;13.83;;
46391;SDS011;32098;49.448;7.904;2024-01-15T08:14:36;25.47;;;13.67;;
46391;SDS011;32098;49.448;7.904;2024-01-15T08:17:03;27.50;;;13.67;;
46391;SDS011;32098;49.448;7.904;2024-01-15T08:19:29;24.97;;;13.27;;
46391;SDS011;32098;49.448;7.904;2024-01-15T08:21:56;25.07;;;13.83;;
46391;SDS011;32098;49.448;7.904;2024-01-15T08:24:23;25.40;;;13.03;;
46391;SDS011;32098;49.448;7.904;2024-01-15T08:26:50;23.40;;;12.73;;
46391;SDS011;32098;49.448;7.904;2024-01-15T08:29:16;23.83;;;12.57;;
46391;SDS011;32098;49.448;7.904;2024-01-15T08:31:45;24.47;;;13.43;;
46391;SDS011;32098;49.448;7.904;2024-01-15T08:34:12;26.10;;;13.37;;
46391;SDS011;32098;49.448;7.904;2024-01-15T08:36:39;28.77;;;15.13;;
46391;SDS011;32098;49.448;7.904;2024-01-15T08:39:07;23.70;;;13.83;;
46391;SDS011;32098;49.448;7.904;2024-01-15T08:41:35;26.10;;;12.97;;
46391;SDS011;32098;49.448;7.904;2024-01-15T08:44:02;25.50;;;13.03;;
46391;SDS011;32098;49.448;7.904;2024-01-15T08:46:29;23.63;;;12.77;;
46391;SDS011;32098;49.448;7.904;2024-01-15T08:48:55;26.20;;;13.67;;
46391;SDS011;32098;49.448;7.904;2024-01-15T08:51:22;28.00;;;14.53;;
46391;SDS011;32098;49.448;7.904;2024-01-15T08:53:49;28.60;;;14.23;;
46391;SDS011;32098;49.448;7.904;2024-01-15T08:56:16;27.80;;;13.43;;
46391;SDS011;32098;49.448;7.904;2024-01-15T08:58:43;26.90;;;13.70;;
46391;SDS011;32098;49.448;7.904;2024-01-15T09:01:11;26.37;;;13.43;;
46391;SDS011;32098;49.448;7.904;2024-01-15T09:03:37;28.43;;;14.67;;
46391;SDS011;32098;49.448;7.904;2024-01-15T09:06:04;26.60;;;13.90;;
46391;SDS011;32098;49.448;7.904;2024-01-15T09:08:31;25.53;;;13.63;;
46391;SDS011;32098;49.448;7.904;2024-01-15T09:10:57;24.43;;;13.07;;
46391;SDS011;32098;49.448;7.904;2024-01-15T09:13:25;29.90;;;14.00;;
46391;SDS011;32098;49.448;7.904;2024-01-15T09:15:51;27.13;;;14.70;;
46391;SDS011;32098;49.448;7.904;2024-01-15T09:18:19;28.50;;;14.97;;
46391;SDS011;32098;49.448;7.904;2024-01-15T09:20:46;31.13;;;15.43;;
46391;SDS011;32098;49.448;7.904;2024-01-15T09:23:12;27.63;;;14.70;;
46391;SDS011;32098;49.448;7.904;2024-01-15T09:25:39;28.20;;;13.73;;
46391;SDS011;32098;49.448;7.904;2024-01-15T09:28:06;26.50;;;14.03;;
46391;SDS011;32098;49.448;7.904;2024-01-15T09:30:34;26.03;;;13.33;;
46391;SDS011;32098;49.448;7.904;2024-01-15T09:33:01;27.10;;;14.57;;
46391;SDS011;32098;49.448;7.904;2024-01-15T09:35:28;31.37;;;16.87;;
46391;SDS011;32098;49.448;7.904;2024-01-15T09:37:54;26.90;;;13.20;;
46391;SDS011;32098;49.448;7.904;2024-01-15T09:40:21;23.13;;;12.00;;
46391;SDS011;32098;49.448;7.904;2024-01-15T09:42:48;22.63;;;11.77;;
46391;SDS011;32098;49.448;7.904;2024-01-15T09:45:16;24.33;;;13.00;;
46391;SDS011;32098;49.448;7.904;2024-01-15T09:47:43;23.80;;;13.03;;
46391;SDS011;32098;49.448;7.904;2024-01-15T09:50:12;23.63;;;11.80;;
46391;SDS011;32098;49.448;7.904;2024-01-15T09:52:42;22.67;;;12.70;;
46391;SDS011;32098;49.448;7.904;2024-01-15T09:55:10;25.90;;;12.77;;
46391;SDS011;32098;49.448;7.904;2024-01-15T09:57:38;21.90;;;12.27;;
46391;SDS011;32098;49.448;7.904;2024-01-15T10:00:05;24.57;;;13.80;;
46391;SDS011;32098;49.448;7.904;2024-01-15T10:02:33;22.30;;;12.80;;
46391;SDS011;32098;49.448;7.904;2024-01-15T10:05:04;23.40;;;13.23;;
46391;SDS011;32098;49.448;7.904;2024-01-15T10:07:31;20.93;;;12.13;;
46391;SDS011;32098;49.448;7.904;2024-01-15T10:10:01;21.10;;;12.00;;
46391;SDS011;32098;49.448;7.904;2024-01-15T10:12:30;22.07;;;12.33;;
46391;SDS011;32098;49.448;7.904;2024-01-15T10:14:58;23.57;;;11.93;;
46391;SDS011;32098;49.448;7.904;2024-01-15T10:17:25;23.00;;;12.03;;
46391;SDS011;32098;49.448;7.904;2024-01-15T10:19:54;20.07;;;11.23;;
46391;SDS011;32098;49.448;7.904;2024-01-15T10:22:21;20.20;;;11.40;;
46391;SDS011;32098;49.448;7.904;2024-01-15T10:24:48;21.23;;;10.97;;
46391;SDS011;32098;49.448;7.904;2024-01-15T10:27:15;23.17;;;12.30;;
46391;SDS011;32098;49.448;7.904;2024-01-15T10:29:43;21.77;;;12.23;;
46391;SDS011;32098;49.448;7.904;2024-01-15T10:32:11;21.67;;;11.17;;
46391;SDS011;32098;49.448;7.904;2024-01-15T10:34:38;20.80;;;12.40;;
46391;SDS011;32098;49.448;7.904;2024-01-15T10:37:10;21.93;;;12.00;;
46391;SDS011;32098;49.448;7.904;2024-01-15T10:39:36;21.13;;;11.40;;
46391;SDS011;32098;49.448;7.904;2024-01-15T10:42:05;19.80;;;11.23;;
46391;SDS011;32098;49.448;7.904;2024-01-15T10:44:33;18.27;;;10.77;;
46391;SDS011;32098;49.448;7.904;2024-01-15T10:47:01;25.43;;;14.13;;
46391;SDS011;32098;49.448;7.904;2024-01-15T10:49:27;27.67;;;13.87;;
46391;SDS011;32098;49.448;7.904;2024-01-15T10:52:00;21.13;;;11.97;;
46391;SDS011;32098;49.448;7.904;2024-01-15T10:54:27;20.07;;;10.80;;
46391;SDS011;32098;49.448;7.904;2024-01-15T10:56:56;22.83;;;12.63;;
46391;SDS011;32098;49.448;7.904;2024-01-15T10:59:23;20.53;;;11.63;;
46391;SDS011;32098;49.448;7.904;2024-01-15T11:01:51;21.27;;;12.17;;
46391;SDS011;32098;49.448;7.904;2024-01-15T11:04:23;23.10;;;10.90;;
46391;SDS011;32098;49.448;7.904;2024-01-15T11:06:52;19.97;;;11.23;;
46391;SDS011;32098;49.448;7.904;2024-01-15T11:09:22;21.30;;;12.07;;
46391;SDS011;32098;49.448;7.904;2024-01-15T11:11:52;19.23;;;10.63;;
46391;SDS011;32098;49.448;7.904;2024-01-15T11:14:40;19.97;;;11.37;;
46391;SDS011;32098;49.448;7.904;2024-01-15T11:17:13;20.67;;;11.40;;
46391;SDS011;32098;49.448;7.904;2024-01-15T11:19:43;23.50;;;11.00;;
46391;SDS011;32098;49.448;7.904;2024-01-15T11:25:02;18.37;;;10.60;;
46391;SDS011;32098;49.448;7.904;2024-01-15T11:27:44;18.83;;;10.53;;
46391;SDS011;32098;49.448;7.904;2024-01-15T11:30:19;18.07;;;10.33;;
46391;SDS011;32098;49.448;7.904;2024-01-15T11:32:46;17.73;;;9.97;;
46391;SDS011;32098;49.448;7.904;2024-01-15T11:35:13;18.53;;;9.53;;
46391;SDS011;32098;49.448;7.904;2024-01-15T11:43:00;19.67;;;9.60;;
46391;SDS011;32098;49.448;7.904;2024-01-15T11:45:29;17.47;;;9.63;;
46391;SDS011;32098;49.448;7.904;2024-01-15T11:50:39;16.03;;;9.53;;
46391;SDS011;32098;49.448;7.904;2024-01-15T11:53:17;18.57;;;9.63;;
46391;SDS011;32098;49.448;7.904;2024-01-15T11:55:53;16.50;;;9.97;;
46391;SDS011;32098;49.448;7.904;2024-01-15T11:58:24;15.27;;;9.07;;
46391;SDS011;32098;49.448;7.904;2024-01-15T12:00:52;16.03;;;9.30;;
46391;SDS011;32098;49.448;7.904;2024-01-15T12:03:24;18.47;;;10.33;;
46391;SDS011;32098;49.448;7.904;2024-01-15T12:05:54;20.10;;;11.10;;
46391;SDS011;32098;49.448;7.904;2024-01-15T12:08:24;17.03;;;10.10;;
46391;SDS011;32098;49.448;7.904;2024-01-15T12:10:51;17.20;;;9.13;;
46391;SDS011;32098;49.448;7.904;2024-01-15T12:13:18;21.17;;;9.97;;
46391;SDS011;32098;49.448;7.904;2024-01-15T12:15:47;15.93;;;9.17;;
46391;SDS011;32098;49.448;7.904;2024-01-15T12:18:16;14.23;;;8.50;;
46391;SDS011;32098;49.448;7.904;2024-01-15T12:20:45;17.70;;;10.17;;
46391;SDS011;32098;49.448;7.904;2024-01-15T12:23:15;15.13;;;9.70;;
46391;SDS011;32098;49.448;7.904;2024-01-15T12:25:44;17.53;;;9.70;;
46391;SDS011;32098;49.448;7.904;2024-01-15T12:28:11;18.10;;;9.97;;
46391;SDS011;32098;49.448;7.904;2024-01-15T12:30:38;15.47;;;9.67;;
46391;SDS011;32098;49.448;7.904;2024-01-15T12:33:06;16.67;;;9.70;;
46391;SDS011;32098;49.448;7.904;2024-01-15T12:35:35;15.47;;;9.13;;
46391;SDS011;32098;49.448;7.904;2024-01-15T12:38:02;15.93;;;9.43;;
46391;SDS011;32098;49.448;7.904;2024-01-15T12:40:31;15.23;;;9.00;;
46391;SDS011;32098;49.448;7.904;2024-01-15T12:42:59;15.97;;;10.03;;
46391;SDS011;32098;49.448;7.904;2024-01-15T12:45:27;18.53;;;10.13;;
46391;SDS011;32098;49.448;7.904;2024-01-15T12:47:54;16.97;;;10.67;;
46391;SDS011;32098;49.448;7.904;2024-01-15T12:50:23;18.20;;;10.00;;
46391;SDS011;32098;49.448;7.904;2024-01-15T12:52:50;17.17;;;10.53;;
46391;SDS011;32098;49.448;7.904;2024-01-15T12:55:17;18.00;;;10.47;;
46391;SDS011;32098;49.448;7.904;2024-01-15T12:57:44;16.60;;;10.53;;
46391;SDS011;32098;49.448;7.904;2024-01-15T13:00:12;17.87;;;10.77;;
46391;SDS011;32098;49.448;7.904;2024-01-15T13:02:43;16.80;;;10.07;;
46391;SDS011;32098;49.448;7.904;2024-01-15T13:05:10;14.47;;;9.33;;
46391;SDS011;32098;49.448;7.904;2024-01-15T13:07:40;14.53;;;9.33;;
46391;SDS011;32098;49.448;7.904;2024-01-15T13:10:07;19.07;;;10.13;;
46391;SDS011;32098;49.448;7.904;2024-01-15T13:12:36;18.87;;;10.37;;
46391;SDS011;32098;49.448;7.904;2024-01-15T13:15:04;17.60;;;11.70;;
46391;SDS011;32098;49.448;7.904;2024-01-15T13:17:31;17.10;;;10.27;;
46391;SDS011;32098;49.448;7.904;2024-01-15T13:19:57;21.60;;;12.60;;
46391;SDS011;32098;49.448;7.904;2024-01-15T13:22:25;19.60;;;12.47;;
46391;SDS011;32098;49.448;7.904;2024-01-15T13:24:59;19.13;;;11.53;;
46391;SDS011;32098;49.448;7.904;2024-01-15T13:27:26;20.30;;;10.67;;
46391;SDS011;32098;49.448;7.904;2024-01-15T13:29:53;18.43;;;10.37;;
46391;SDS011;32098;49.448;7.904;2024-01-15T13:32:28;16.20;;;10.50;;
46391;SDS011;32098;49.448;7.904;2024-01-15T13:34:56;15.20;;;9.57;;
46391;SDS011;32098;49.448;7.904;2024-01-15T13:37:24;18.13;;;10.83;;
46391;SDS011;32098;49.448;7.904;2024-01-15T13:39:51;14.97;;;9.13;;
46391;SDS011;32098;49.448;7.904;2024-01-15T13:42:19;18.30;;;10.57;;
46391;SDS011;32098;49.448;7.904;2024-01-15T13:44:49;19.30;;;9.93;;
46391;SDS011;32098;49.448;7.904;2024-01-15T13:47:16;18.17;;;10.77;;
46391;SDS011;32098;49.448;7.904;2024-01-15T13:49:43;13.57;;;8.70;;
46391;SDS011;32098;49.448;7.904;2024-01-15T13:52:10;15.83;;;8.87;;
46391;SDS011;32098;49.448;7.904;2024-01-15T13:54:37;15.27;;;8.97;;
46391;SDS011;32098;49.448;7.904;2024-01-15T13:57:16;14.33;;;9.43;;
46391;SDS011;32098;49.448;7.904;2024-01-15T13:59:43;16.97;;;9.70;;
46391;SDS011;32098;49.448;7.904;2024-01-15T14:02:10;17.30;;;10.77;;
46391;SDS011;32098;49.448;7.904;2024-01-15T14:04:37;18.03;;;11.30;;
46391;SDS011;32098;49.448;7.904;2024-01-15T14:07:05;17.13;;;10.73;;
46391;SDS011;32098;49.448;7.904;2024-01-15T14:09:32;17.23;;;10.77;;
46391;SDS011;32098;49.448;7.904;2024-01-15T14:11:59;14.30;;;9.57;;
46391;SDS011;32098;49.448;7.904;2024-01-15T14:14:26;17.33;;;10.23;;
46391;SDS011;32098;49.448;7.904;2024-01-15T14:16:53;20.27;;;12.93;;
46391;SDS011;32098;49.448;7.904;2024-01-15T14:19:19;17.20;;;9.93;;
46391;SDS011;32098;49.448;7.904;2024-01-15T14:21:47;17.93;;;10.63;;
46391;SDS011;32098;49.448;7.904;2024-01-15T14:24:14;17.10;;;9.57;;
46391;SDS011;32098;49.448;7.904;2024-01-15T14:26:42;16.07;;;9.20;;
46391;SDS011;32098;49.448;7.904;2024-01-15T14:29:09;15.57;;;9.13;;
46391;SDS011;32098;49.448;7.904;2024-01-15T14:31:36;18.70;;;11.17;;
46391;SDS011;32098;49.448;7.904;2024-01-15T14:34:03;15.80;;;9.23;;
46391;SDS011;32098;49.448;7.904;2024-01-15T14:36:30;13.10;;;8.30;;